SCVM 191300Z 35009KT 9999 SCT025 BKN035 13/08 Q1021